CheckWX is a tool to help pilots better visualize weather data.  It is not intended as a substitute for an official pre-flight weather briefing.

14:26:38 UTC

K2DP METAR
Dare County Gunnery Range Airport
North Carolina, USA
Current

31 mins ago

K2DP 261356Z AUTO 19013KT 10SM CLR 23/20 A2974 RMK AO2 LTG DSNT NW SLPNO T02290199 $
Observed
Apr-26 @ 13:56 UTC
Wind
  • 190° at 13 KTS
Visibility
10 SM
Flight Rules
VFR
Cloud Levels
  • Clear skies
Temperature
23°C / 73°F
Dewpoint
20°C / 68°F
Humidity
83%
Altimeter
29.74" Hg
Pressure
1007.12 hPa
Previous

2 hours ago

K2DP 261256Z AUTO 20009KT 10SM FEW048 BKN140 22/20 A2978 RMK AO2 SLPNO T02230195 $
Observed
Apr-26 @ 12:56 UTC
Wind
  • 200° at 9 KTS
Visibility
10 SM
Flight Rules
VFR
Cloud Levels
  • Few at 4,800' AGL
  • Broken at 14,000' AGL
Temperature
22°C / 72°F
Dewpoint
20°C / 68°F
Humidity
88%
Altimeter
29.78" Hg
Pressure
1008.42 hPa
Previous

3 hours ago

K2DP 261156Z AUTO 21014KT 10SM FEW150 BKN190 21/19 A2979 RMK AO2 SLPNO T02140193 10214 20180 56006 $
Observed
Apr-26 @ 11:56 UTC
Wind
  • 210° at 14 KTS
Visibility
10 SM
Flight Rules
VFR
Cloud Levels
  • Few at 15,000' AGL
  • Broken at 19,000' AGL
Temperature
21°C / 70°F
Dewpoint
19°C / 66°F
Humidity
88%
Altimeter
29.79" Hg
Pressure
1008.82 hPa